Time;durP1;ratioP1;P1;durP2;ratioP2;P2;SDS_P1;SDS_P2;PMS_P1;PMS_P2;Temp;Humidity;BMP_temperature;BMP_pressure;BME280_temperature;BME280_humidity;BME280_pressure;Samples;Min_cycle;Max_cycle;Signal;HPM_P1;HPM_P2
2024/01/18 00:01:10;;;;;;;27.20;22.70;;;-2.50;99.90;;;;;;4862294;29;20056;-43
2024/01/18 00:03:42;;;;;;;31.48;22.58;;;-2.40;99.90;;;;;;4878797;29;20396;-45
2024/01/18 00:06:08;;;;;;;27.10;20.90;;;-2.50;99.90;;;;;;4885411;29;20072;-47
2024/01/18 00:08:34;;;;;;;29.98;21.75;;;-2.60;99.90;;;;;;4881697;29;20083;-44
2024/01/18 00:11:03;;;;;;;30.23;21.55;;;-2.20;99.90;;;;;;4884825;29;20076;-44
2024/01/18 00:13:28;;;;;;;29.67;22.10;;;-2.30;99.90;;;;;;4879384;29;20041;-44
2024/01/18 00:15:54;;;;;;;30.33;21.58;;;-2.30;99.90;;;;;;4881049;29;20063;-45
2024/01/18 00:18:19;;;;;;;26.23;21.20;;;-2.60;99.90;;;;;;4880157;29;20116;-45
2024/01/18 00:20:45;;;;;;;28.83;21.35;;;-2.40;99.90;;;;;;4879743;29;20052;-44
2024/01/18 00:23:11;;;;;;;26.95;21.35;;;-2.40;99.90;;;;;;4879109;29;20067;-45
2024/01/18 00:25:36;;;;;;;30.95;21.73;;;-2.50;99.90;;;;;;4880852;29;20462;-44
2024/01/18 00:28:02;;;;;;;27.88;21.50;;;-2.60;99.90;;;;;;4880092;29;20564;-43
2024/01/18 00:30:28;;;;;;;29.83;22.70;;;-2.60;99.90;;;;;;4880534;29;20362;-43
2024/01/18 00:32:53;;;;;;;30.85;21.73;;;-2.50;99.90;;;;;;4871530;29;20048;-45
2024/01/18 00:35:19;;;;;;;27.10;20.70;;;-2.50;99.90;;;;;;4872576;29;20049;-44
2024/01/18 00:37:45;;;;;;;27.95;20.95;;;-2.60;99.90;;;;;;4878657;29;20053;-44
2024/01/18 00:40:13;;;;;;;28.80;20.77;;;-2.60;99.90;;;;;;4878620;29;20049;-44
2024/01/18 00:42:39;;;;;;;;;;;-2.60;99.90;;;;;;4875215;29;20157;-46
2024/01/18 00:45:05;;;;;;;26.75;20.45;;;-2.50;99.90;;;;;;4879595;29;20390;-44
2024/01/18 00:47:31;;;;;;;26.38;20.15;;;-2.60;99.90;;;;;;4879127;29;20048;-44
2024/01/18 00:49:56;;;;;;;29.30;20.90;;;-2.60;99.90;;;;;;4878805;29;20503;-44
2024/01/18 00:52:22;;;;;;;26.52;20.33;;;-2.50;99.90;;;;;;4879735;29;20117;-44
2024/01/18 00:54:47;;;;;;;28.85;20.55;;;-2.70;99.90;;;;;;4879184;29;20049;-44
2024/01/18 00:57:13;;;;;;;29.60;21.80;;;-2.60;99.90;;;;;;4879142;29;20124;-42
2024/01/18 00:59:39;;;;;;;28.65;21.15;;;-2.60;99.90;;;;;;4878198;29;20033;-43
2024/01/18 01:02:05;;;;;;;26.17;20.80;;;-2.50;99.90;;;;;;4878739;29;20427;-43
2024/01/18 01:04:31;;;;;;;28.70;21.08;;;-2.70;99.90;;;;;;4878452;29;20049;-42
2024/01/18 01:06:57;;;;;;;27.60;20.95;;;-2.70;99.90;;;;;;4872164;29;20041;-44
2024/01/18 01:09:22;;;;;;;27.35;21.23;;;-2.70;99.90;;;;;;4878705;29;20080;-44
2024/01/18 01:11:48;;;;;;;30.23;20.35;;;-2.70;99.90;;;;;;4878878;29;20041;-42
2024/01/18 01:14:13;;;;;;;25.58;20.40;;;-2.70;99.90;;;;;;4880730;29;20159;-43
2024/01/18 01:16:39;;;;;;;27.90;20.88;;;-2.80;99.90;;;;;;4891565;29;20051;-43
2024/01/18 01:19:05;;;;;;;27.75;20.25;;;-2.80;99.90;;;;;;4878924;29;20059;-45
2024/01/18 01:21:30;;;;;;;26.42;20.70;;;-2.80;99.90;;;;;;4878353;29;20055;-44
2024/01/18 01:23:56;;;;;;;27.08;19.73;;;-2.80;99.90;;;;;;4879328;29;20049;-45
2024/01/18 01:26:22;;;;;;;29.10;19.17;;;-2.80;99.90;;;;;;4878263;29;20140;-43
2024/01/18 01:28:49;;;;;;;24.58;18.33;;;-2.80;99.90;;;;;;4878825;29;20041;-44
2024/01/18 01:31:15;;;;;;;27.23;18.85;;;-2.80;99.90;;;;;;4878097;29;20497;-43
2024/01/18 01:33:42;;;;;;;22.98;18.30;;;-2.80;99.90;;;;;;4878960;29;20057;-43
2024/01/18 01:36:07;;;;;;;24.38;18.67;;;-2.80;99.90;;;;;;4877202;29;20051;-43
2024/01/18 01:38:33;;;;;;;28.85;18.60;;;-2.90;99.90;;;;;;4876772;29;20140;-43
2024/01/18 01:41:00;;;;;;;27.83;17.58;;;-2.90;99.90;;;;;;4876189;29;20041;-43
2024/01/18 01:43:27;;;;;;;23.58;16.95;;;-2.90;99.90;;;;;;4877078;29;20056;-43
2024/01/18 01:45:52;;;;;;;25.33;16.88;;;-2.90;99.90;;;;;;4876508;29;20052;-44
2024/01/18 01:48:18;;;;;;;24.52;16.58;;;-2.90;99.90;;;;;;4876157;29;20037;-43
2024/01/18 01:50:45;;;;;;;22.90;15.60;;;-2.90;99.90;;;;;;4878368;29;20581;-43
2024/01/18 01:53:12;;;;;;;22.50;15.55;;;-2.80;99.90;;;;;;4878538;29;20135;-44
2024/01/18 01:55:39;;;;;;;21.90;16.50;;;-2.80;99.90;;;;;;4878417;29;20056;-43
2024/01/18 01:58:07;;;;;;;21.33;15.10;;;-2.90;99.90;;;;;;4878418;29;20135;-44
2024/01/18 02:00:34;;;;;;;21.25;15.25;;;-2.90;99.90;;;;;;4877050;29;20049;-43
2024/01/18 02:02:59;;;;;;;21.10;14.65;;;-2.90;99.90;;;;;;4877891;29;20061;-44
2024/01/18 02:05:26;;;;;;;17.95;14.23;;;-2.90;99.90;;;;;;4877673;29;20519;-43
2024/01/18 02:07:53;;;;;;;19.50;13.60;;;-2.90;99.90;;;;;;4878083;29;20049;-43
2024/01/18 02:10:18;;;;;;;21.42;14.23;;;-3.00;99.90;;;;;;4877644;29;20131;-44
2024/01/18 02:12:45;;;;;;;16.75;12.93;;;-3.00;99.90;;;;;;4877577;29;20120;-43
2024/01/18 02:15:11;;;;;;;17.70;12.52;;;-3.00;99.90;;;;;;4877980;29;20044;-43
2024/01/18 02:17:37;;;;;;;20.80;12.73;;;-3.00;99.90;;;;;;4879569;29;20385;-43
2024/01/18 02:20:04;;;;;;;18.58;12.93;;;-3.00;99.90;;;;;;4878310;29;20408;-45
2024/01/18 02:22:32;;;;;;;20.83;12.80;;;-3.00;99.90;;;;;;4880941;29;20048;-45
2024/01/18 02:25:09;;;;;;;17.02;12.77;;;-3.00;99.90;;;;;;4878132;29;20064;-44
2024/01/18 02:27:35;;;;;;;17.60;13.32;;;-3.00;99.90;;;;;;4864191;29;20048;-43
2024/01/18 02:30:00;;;;;;;17.00;11.48;;;-2.90;99.90;;;;;;4877353;29;20412;-44
2024/01/18 02:32:26;;;;;;;17.02;10.40;;;-2.90;99.90;;;;;;4877660;29;20097;-43
2024/01/18 02:34:52;;;;;;;16.50;10.55;;;-2.80;99.90;;;;;;4877770;29;20401;-43
2024/01/18 02:37:18;;;;;;;16.90;9.52;;;-2.80;99.90;;;;;;4876978;29;20055;-44
2024/01/18 02:39:44;;;;;;;15.65;9.73;;;-2.80;99.90;;;;;;4877577;29;20033;-43
2024/01/18 02:42:09;;;;;;;15.75;9.05;;;-2.80;99.90;;;;;;4872167;29;20041;-43
2024/01/18 02:44:37;;;;;;;15.13;9.40;;;-2.80;99.90;;;;;;4878031;29;20128;-47
2024/01/18 02:47:03;;;;;;;13.98;9.52;;;-2.80;99.90;;;;;;4874960;29;20057;-43
2024/01/18 02:49:29;;;;;;;13.57;9.38;;;-2.90;99.90;;;;;;4876516;29;20056;-43
2024/01/18 02:51:55;;;;;;;16.38;9.70;;;-2.90;99.90;;;;;;4882462;29;20485;-43
2024/01/18 02:54:21;;;;;;;12.73;9.00;;;-2.90;99.90;;;;;;4877508;29;20120;-43
2024/01/18 02:56:46;;;;;;;14.75;10.10;;;-3.00;99.90;;;;;;4877568;29;20152;-43
2024/01/18 02:59:12;;;;;;;15.30;9.57;;;-3.00;99.90;;;;;;4874662;29;20045;-43
2024/01/18 03:01:37;;;;;;;17.30;9.45;;;-3.10;99.90;;;;;;4876940;29;20037;-43
2024/01/18 03:04:03;;;;;;;15.07;8.70;;;-3.00;99.90;;;;;;4861912;29;20033;-43
2024/01/18 03:06:29;;;;;;;14.20;9.32;;;-3.00;99.90;;;;;;4877693;29;20112;-43
2024/01/18 03:08:54;;;;;;;16.88;9.48;;;-3.00;99.90;;;;;;4873926;29;20052;-44
2024/01/18 03:11:20;;;;;;;14.77;8.80;;;-2.90;99.90;;;;;;4884606;29;20044;-43
2024/01/18 03:13:46;;;;;;;17.00;8.55;;;-2.90;99.90;;;;;;4874972;29;20492;-43
2024/01/18 03:16:12;;;;;;;14.80;8.15;;;-3.00;99.90;;;;;;4877331;29;20053;-44
2024/01/18 03:18:37;;;;;;;15.05;7.78;;;-3.00;99.90;;;;;;4879499;29;20045;-43
2024/01/18 03:21:06;;;;;;;13.50;7.82;;;-2.90;99.90;;;;;;4876897;29;20041;-43
2024/01/18 03:23:32;;;;;;;11.48;7.68;;;-2.90;99.90;;;;;;4871869;29;20072;-44
2024/01/18 03:25:57;;;;;;;8.48;6.55;;;-3.00;99.90;;;;;;4877867;29;20556;-43
2024/01/18 03:28:23;;;;;;;8.90;6.25;;;-2.90;99.90;;;;;;4879325;29;20060;-44
2024/01/18 03:30:48;;;;;;;9.57;6.45;;;-2.90;99.90;;;;;;4877965;29;20602;-44
2024/01/18 03:33:14;;;;;;;8.60;6.05;;;-3.00;99.90;;;;;;4877464;29;20041;-43
2024/01/18 03:35:41;;;;;;;10.02;6.93;;;-3.00;99.90;;;;;;4876985;29;20045;-45
2024/01/18 03:38:07;;;;;;;10.60;6.97;;;-3.00;99.90;;;;;;4877304;29;20556;-43
2024/01/18 03:40:33;;;;;;;11.23;6.10;;;-3.10;99.90;;;;;;4876507;29;20041;-44
2024/01/18 03:42:58;;;;;;;11.63;5.43;;;-3.10;99.90;;;;;;4873014;29;20374;-43
2024/01/18 03:45:24;;;;;;;10.70;5.80;;;-3.10;99.90;;;;;;4877914;29;20051;-44
2024/01/18 03:47:50;;;;;;;15.07;6.85;;;-3.10;99.90;;;;;;4876358;29;20492;-45
2024/01/18 03:50:16;;;;;;;9.23;5.93;;;-3.00;99.90;;;;;;4876613;29;20089;-45
2024/01/18 03:52:42;;;;;;;10.20;5.95;;;-3.10;99.90;;;;;;4876851;29;20076;-43
2024/01/18 03:55:08;;;;;;;12.05;5.97;;;-3.00;99.90;;;;;;4877549;29;20515;-44
2024/01/18 03:57:34;;;;;;;9.18;5.53;;;-3.10;99.90;;;;;;4877231;29;20072;-46
2024/01/18 03:59:59;;;;;;;10.18;5.00;;;-3.10;99.90;;;;;;4878136;29;20740;-43
2024/01/18 04:02:25;;;;;;;10.05;5.40;;;-3.10;99.90;;;;;;4876401;29;20479;-44
2024/01/18 04:04:51;;;;;;;9.18;5.05;;;-3.10;99.90;;;;;;4874471;29;20045;-43
2024/01/18 04:07:18;;;;;;;9.02;4.95;;;-3.10;99.90;;;;;;4875015;29;20049;-43
2024/01/18 04:09:44;;;;;;;8.35;4.45;;;-3.20;99.90;;;;;;4857557;29;20053;-43
2024/01/18 04:12:10;;;;;;;9.45;4.40;;;-3.20;99.90;;;;;;4874129;29;20057;-46
2024/01/18 04:14:35;;;;;;;9.77;4.53;;;-3.30;99.90;;;;;;4862451;29;20052;-44
2024/01/18 04:17:01;;;;;;;7.68;4.00;;;-3.30;99.90;;;;;;4886395;29;20041;-43
2024/01/18 04:19:26;;;;;;;6.40;4.10;;;-3.30;99.90;;;;;;4886102;29;20049;-43
2024/01/18 04:21:52;;;;;;;7.65;4.80;;;-3.40;99.90;;;;;;4877518;29;20048;-43
2024/01/18 04:24:18;;;;;;;7.70;4.13;;;-3.40;99.90;;;;;;4893822;29;20040;-43
2024/01/18 04:26:43;;;;;;;6.53;4.25;;;-3.50;99.90;;;;;;4880282;29;20049;-43
2024/01/18 04:29:09;;;;;;;6.93;4.47;;;-3.50;99.90;;;;;;4880491;29;20492;-42
2024/01/18 04:31:35;;;;;;;6.57;4.60;;;-3.60;99.90;;;;;;4879888;29;20404;-43
2024/01/18 04:34:00;;;;;;;8.93;4.50;;;-3.60;99.90;;;;;;4881455;29;20045;-43
2024/01/18 04:36:26;;;;;;;5.68;4.25;;;-3.60;99.90;;;;;;4881756;29;20523;-44
2024/01/18 04:38:51;;;;;;;5.15;4.05;;;-3.60;99.90;;;;;;4880633;29;20045;-44
2024/01/18 04:41:17;;;;;;;10.45;4.85;;;-3.60;99.90;;;;;;4875780;29;20049;-46
2024/01/18 04:43:43;;;;;;;9.40;4.78;;;-3.60;99.90;;;;;;4879680;29;20127;-44
2024/01/18 04:46:09;;;;;;;6.10;4.50;;;-3.70;99.90;;;;;;4878268;29;20041;-43
2024/01/18 04:48:36;;;;;;;6.90;4.70;;;-3.70;99.90;;;;;;4879321;29;20045;-44
2024/01/18 04:51:03;;;;;;;10.30;5.38;;;-3.70;99.90;;;;;;4879196;29;20124;-44
2024/01/18 04:53:29;;;;;;;6.10;4.80;;;-3.70;99.90;;;;;;4879970;29;20587;-42
2024/01/18 04:55:55;;;;;;;6.68;4.70;;;-3.70;99.90;;;;;;4879873;29;20132;-43
2024/01/18 04:58:22;;;;;;;9.20;4.85;;;-3.80;99.90;;;;;;4879342;29;20136;-44
2024/01/18 05:00:47;;;;;;;6.32;5.10;;;-3.80;99.90;;;;;;4879835;29;20049;-43
2024/01/18 05:03:13;;;;;;;6.03;4.93;;;-3.70;99.90;;;;;;4879438;29;20045;-43
2024/01/18 05:05:39;;;;;;;10.30;5.22;;;-3.80;99.90;;;;;;4879201;29;20045;-43
2024/01/18 05:08:04;;;;;;;10.65;5.30;;;-3.80;99.90;;;;;;4879396;29;20068;-43
2024/01/18 05:10:30;;;;;;;10.15;5.05;;;-3.70;99.90;;;;;;4879663;29;20041;-44
2024/01/18 05:12:56;;;;;;;11.23;5.60;;;-3.70;99.90;;;;;;4876778;29;20030;-45
2024/01/18 05:15:24;;;;;;;11.95;6.10;;;-3.60;99.90;;;;;;4876229;29;20049;-43
2024/01/18 05:17:50;;;;;;;;;;;-3.60;99.90;;;;;;4878544;29;20048;-44
2024/01/18 05:20:16;;;;;;;9.52;4.43;;;-3.50;99.90;;;;;;4877082;29;20060;-44
2024/01/18 05:22:42;;;;;;;7.13;4.45;;;-3.40;99.90;;;;;;4878448;29;20045;-43
2024/01/18 05:25:08;;;;;;;10.48;4.72;;;-3.40;99.90;;;;;;4879336;29;20049;-45
2024/01/18 05:27:33;;;;;;;10.00;5.88;;;-3.30;99.90;;;;;;4879470;29;20056;-43
2024/01/18 05:29:59;;;;;;;8.82;4.57;;;-3.30;99.90;;;;;;4861810;29;20045;-43
2024/01/18 05:32:26;;;;;;;6.05;4.30;;;-3.30;99.90;;;;;;4878437;29;20097;-43
2024/01/18 05:34:52;;;;;;;8.60;5.15;;;-3.30;99.90;;;;;;4878390;29;20052;-43
2024/01/18 05:37:18;;;;;;;7.07;4.68;;;-3.40;99.90;;;;;;4878974;29;20060;-44
2024/01/18 05:39:44;;;;;;;8.80;4.90;;;-3.40;99.90;;;;;;4878967;29;20072;-44
2024/01/18 05:42:10;;;;;;;8.65;5.43;;;-3.50;99.90;;;;;;4867474;29;20041;-44
2024/01/18 05:44:36;;;;;;;8.23;4.72;;;-3.50;99.90;;;;;;4879567;29;20088;-45
2024/01/18 05:47:02;;;;;;;7.88;4.85;;;-3.50;99.90;;;;;;4878986;29;20480;-47
2024/01/18 05:49:28;;;;;;;7.55;4.82;;;-3.60;99.90;;;;;;4878601;29;20116;-44
2024/01/18 05:51:53;;;;;;;9.60;4.88;;;-3.60;99.90;;;;;;4879066;29;20445;-42
2024/01/18 05:54:19;;;;;;;8.88;5.30;;;-3.70;99.90;;;;;;4878473;29;20067;-42
2024/01/18 05:56:48;;;;;;;7.13;5.38;;;-3.70;99.90;;;;;;4879220;29;20041;-42
2024/01/18 05:59:14;;;;;;;8.85;6.43;;;-3.70;99.90;;;;;;4862900;29;20041;-43
2024/01/18 06:01:41;;;;;;;6.47;4.55;;;-3.70;99.90;;;;;;4878395;29;20036;-44
2024/01/18 06:04:07;;;;;;;8.07;5.15;;;-3.90;99.90;;;;;;4878323;29;20524;-44
2024/01/18 06:06:32;;;;;;;7.80;4.63;;;-3.90;99.90;;;;;;4877918;29;20041;-43
2024/01/18 06:08:58;;;;;;;8.40;4.65;;;-3.90;99.90;;;;;;4878406;29;20078;-43
2024/01/18 06:11:24;;;;;;;6.55;3.58;;;-4.00;99.90;;;;;;4878223;29;20532;-42
2024/01/18 06:13:50;;;;;;;7.50;4.13;;;-4.00;99.90;;;;;;4878382;29;20045;-44
2024/01/18 06:16:16;;;;;;;8.30;3.90;;;-4.00;99.90;;;;;;4878399;29;20108;-43
2024/01/18 06:18:42;;;;;;;7.55;3.85;;;-4.10;99.90;;;;;;4878268;29;20485;-43
2024/01/18 06:21:11;;;;;;;6.53;3.88;;;-4.10;99.90;;;;;;4877535;29;20048;-43
2024/01/18 06:23:37;;;;;;;4.93;3.45;;;-4.10;99.90;;;;;;4878069;29;20152;-44
2024/01/18 06:26:07;;;;;;;6.40;4.25;;;-4.10;99.90;;;;;;4877665;29;20506;-43
2024/01/18 06:28:32;;;;;;;5.15;3.53;;;-4.10;99.90;;;;;;4874350;29;20113;-43
2024/01/18 06:30:58;;;;;;;6.28;2.97;;;-4.10;99.90;;;;;;4878195;29;20488;-42
2024/01/18 06:33:23;;;;;;;8.77;3.20;;;-4.10;99.90;;;;;;4878715;29;20089;-42
2024/01/18 06:35:49;;;;;;;5.45;2.78;;;-4.10;99.90;;;;;;4878320;29;20077;-43
2024/01/18 06:38:15;;;;;;;4.22;2.92;;;-4.10;99.90;;;;;;4878754;29;20070;-44
2024/01/18 06:40:40;;;;;;;4.57;2.60;;;-4.10;99.90;;;;;;4876459;29;20410;-42
2024/01/18 06:43:06;;;;;;;7.65;3.00;;;-4.10;99.90;;;;;;4866679;29;20393;-43
2024/01/18 06:45:32;;;;;;;5.30;3.17;;;-4.00;99.90;;;;;;4878391;29;20129;-45
2024/01/18 06:47:57;;;;;;;5.28;2.78;;;-4.00;99.90;;;;;;4882177;29;20528;-43
2024/01/18 06:50:23;;;;;;;7.53;3.95;;;-4.00;99.90;;;;;;4878003;29;20496;-44
2024/01/18 06:52:49;;;;;;;6.20;2.70;;;-3.90;99.90;;;;;;4877918;29;20248;-45
2024/01/18 06:55:14;;;;;;;5.35;2.70;;;-4.00;99.90;;;;;;4875634;29;20148;-43
2024/01/18 06:57:40;;;;;;;7.30;2.55;;;-4.00;99.90;;;;;;4877374;29;20419;-43
2024/01/18 07:00:06;;;;;;;3.85;2.40;;;-4.10;99.90;;;;;;4877630;29;20055;-44
2024/01/18 07:02:33;;;;;;;7.25;2.80;;;-4.10;99.90;;;;;;4877166;29;20045;-43
2024/01/18 07:04:59;;;;;;;2.80;2.20;;;-4.10;99.90;;;;;;4877611;29;20085;-44
2024/01/18 07:07:25;;;;;;;4.68;2.55;;;-4.10;99.90;;;;;;4878085;29;20127;-43
2024/01/18 07:09:51;;;;;;;6.60;2.63;;;-4.10;99.90;;;;;;4876821;29;20552;-45
2024/01/18 07:12:17;;;;;;;5.85;2.67;;;-4.00;99.90;;;;;;4875465;29;20062;-43
2024/01/18 07:14:43;;;;;;;6.15;2.55;;;-3.90;99.90;;;;;;4861309;29;20052;-43
2024/01/18 07:17:10;;;;;;;6.75;2.85;;;-3.80;99.90;;;;;;4872120;29;20041;-43
2024/01/18 07:19:36;;;;;;;5.70;2.83;;;-3.80;99.90;;;;;;4877230;29;20049;-43
2024/01/18 07:22:02;;;;;;;4.97;2.70;;;-3.80;99.90;;;;;;4876983;29;20049;-43
2024/01/18 07:24:30;;;;;;;7.10;3.58;;;-3.90;99.90;;;;;;4877080;29;20049;-43
2024/01/18 07:26:59;;;;;;;4.97;2.60;;;-3.90;99.90;;;;;;4876434;29;20140;-43
2024/01/18 07:29:24;;;;;;;4.28;2.38;;;-4.00;99.90;;;;;;4877209;29;20045;-44
2024/01/18 07:31:50;;;;;;;6.30;2.78;;;-4.00;99.90;;;;;;4876274;29;20092;-43
2024/01/18 07:34:16;;;;;;;5.28;2.50;;;-4.00;99.90;;;;;;4875574;29;20413;-43
2024/01/18 07:36:43;;;;;;;6.50;2.60;;;-3.90;99.90;;;;;;4875719;29;20067;-43
2024/01/18 07:39:10;;;;;;;7.28;2.50;;;-3.90;99.90;;;;;;4876237;29;20128;-42
2024/01/18 07:41:36;;;;;;;4.47;2.22;;;-4.00;99.90;;;;;;4876815;29;20049;-42
2024/01/18 07:44:02;;;;;;;4.00;2.58;;;-3.90;99.90;;;;;;4874369;29;20080;-43
2024/01/18 07:46:27;;;;;;;3.67;2.33;;;-4.00;99.90;;;;;;4876442;29;20083;-43
2024/01/18 07:48:53;;;;;;;3.78;2.70;;;-4.00;99.90;;;;;;4862590;29;20045;-44
2024/01/18 07:51:19;;;;;;;5.72;2.47;;;-4.00;99.90;;;;;;4881593;29;20052;-44
2024/01/18 07:53:44;;;;;;;5.68;3.47;;;-4.00;99.90;;;;;;4877120;29;20101;-45
2024/01/18 07:56:11;;;;;;;5.32;2.70;;;-4.00;99.90;;;;;;4876583;29;20037;-44
2024/01/18 07:58:40;;;;;;;6.95;2.85;;;-4.10;99.90;;;;;;4879876;29;20452;-44
2024/01/18 08:01:06;;;;;;;7.15;3.10;;;-4.10;99.90;;;;;;4879444;29;20049;-43
2024/01/18 08:03:32;;;;;;;3.67;2.95;;;-4.00;99.90;;;;;;4881056;29;20044;-43
2024/01/18 08:05:58;;;;;;;7.40;2.75;;;-4.00;99.90;;;;;;4880481;29;20052;-44
2024/01/18 08:08:23;;;;;;;5.20;2.85;;;-3.90;99.90;;;;;;4881008;29;20045;-44
2024/01/18 08:10:49;;;;;;;6.57;2.75;;;-3.90;99.90;;;;;;4867595;29;20056;-44
2024/01/18 08:13:15;;;;;;;4.05;2.50;;;-3.80;99.90;;;;;;4880533;29;20120;-43
2024/01/18 08:15:41;;;;;;;3.90;2.55;;;-3.60;99.90;;;;;;4891195;29;20056;-43
2024/01/18 08:18:06;;;;;;;9.45;3.13;;;-3.50;99.90;;;;;;4880862;29;20072;-43
2024/01/18 08:20:33;;;;;;;5.78;3.15;;;-3.40;99.90;;;;;;4879920;29;20484;-43
2024/01/18 08:22:59;;;;;;;6.68;3.03;;;;;;;;;;4879713;29;20049;-43
2024/01/18 08:25:24;;;;;;;6.60;3.00;;;-3.40;99.90;;;;;;4882808;29;20040;-44
2024/01/18 08:27:56;;;;;;;5.75;3.40;;;-3.30;99.90;;;;;;4882002;29;20132;-43
2024/01/18 08:30:22;;;;;;;6.10;3.38;;;-3.30;99.90;;;;;;4879007;29;20503;-47
2024/01/18 08:32:47;;;;;;;6.45;3.45;;;-3.20;99.90;;;;;;4879251;29;20124;-43
2024/01/18 08:35:13;;;;;;;6.28;3.08;;;-3.30;99.90;;;;;;4870226;29;20045;-43
2024/01/18 08:37:39;;;;;;;7.03;2.78;;;-3.10;99.90;;;;;;4879057;29;20527;-45
2024/01/18 08:40:05;;;;;;;7.40;3.55;;;-3.20;99.90;;;;;;4880226;29;20049;-43
2024/01/18 08:42:31;;;;;;;7.18;2.95;;;-3.10;99.90;;;;;;4878603;29;20045;-44
2024/01/18 08:44:57;;;;;;;5.97;2.90;;;-3.00;99.90;;;;;;4879121;29;20045;-44
2024/01/18 08:47:23;;;;;;;6.20;3.20;;;-3.00;99.90;;;;;;4879084;29;20045;-44
2024/01/18 08:49:49;;;;;;;8.63;3.40;;;-3.00;99.90;;;;;;4860934;29;20053;-45
2024/01/18 08:52:15;;;;;;;7.65;2.92;;;-3.00;99.90;;;;;;4880367;29;20283;-43
2024/01/18 08:54:43;;;;;;;5.55;3.03;;;-2.90;99.90;;;;;;4880571;29;20056;-45
2024/01/18 08:57:09;;;;;;;5.60;3.08;;;-2.80;99.90;;;;;;4860202;29;20416;-44
2024/01/18 08:59:35;;;;;;;8.23;3.05;;;-2.70;99.90;;;;;;4861244;29;20049;-44
2024/01/18 09:02:00;;;;;;;9.20;3.53;;;-2.60;99.90;;;;;;4862880;29;20510;-46
2024/01/18 09:04:26;;;;;;;7.07;2.95;;;-2.40;99.90;;;;;;4878441;29;20037;-45
2024/01/18 09:06:52;;;;;;;6.50;3.28;;;-2.20;99.90;;;;;;4879943;29;20045;-43
2024/01/18 09:09:17;;;;;;;9.57;3.83;;;-2.00;99.90;;;;;;4877497;29;20511;-44
2024/01/18 09:11:43;;;;;;;11.57;4.63;;;-1.80;99.90;;;;;;4879400;29;20518;-44
2024/01/18 09:14:08;;;;;;;12.30;4.95;;;-1.80;99.90;;;;;;4878343;29;20468;-44
2024/01/18 09:16:34;;;;;;;10.10;4.40;;;-1.80;99.90;;;;;;4879458;29;20051;-44
2024/01/18 09:19:00;;;;;;;14.20;5.07;;;-1.80;99.90;;;;;;4879206;29;20124;-44
2024/01/18 09:21:26;;;;;;;11.02;4.50;;;-1.80;99.90;;;;;;4877730;29;20084;-44
2024/01/18 09:23:52;;;;;;;10.70;4.57;;;-1.80;99.90;;;;;;4878154;29;20125;-44
2024/01/18 09:26:18;;;;;;;7.60;4.72;;;-1.70;99.90;;;;;;4878250;29;20044;-44
2024/01/18 09:28:45;;;;;;;13.27;5.35;;;-1.60;99.90;;;;;;4877559;29;20488;-47
2024/01/18 09:31:11;;;;;;;9.88;5.15;;;-1.60;99.90;;;;;;4876728;29;20053;-43
2024/01/18 09:33:37;;;;;;;8.10;4.90;;;-1.50;99.90;;;;;;4876693;29;20045;-44
2024/01/18 09:36:04;;;;;;;10.98;4.63;;;-1.60;99.90;;;;;;4877263;29;20047;-44
2024/01/18 09:38:30;;;;;;;8.10;4.60;;;-1.40;99.90;;;;;;4877036;29;20045;-44
2024/01/18 09:41:19;;;;;;;7.68;4.38;;;-1.40;99.90;;;;;;4877673;29;20532;-44
2024/01/18 09:43:45;;;;;;;5.63;4.10;;;-1.30;99.90;;;;;;4875279;29;20037;-44
2024/01/18 09:46:12;;;;;;;7.05;4.10;;;-1.20;99.90;;;;;;4860122;29;20047;-45
2024/01/18 09:48:39;;;;;;;7.60;4.15;;;;;;;;;;4876475;29;20041;-45
2024/01/18 09:51:09;;;;;;;7.07;3.80;;;-1.10;99.90;;;;;;4877156;29;20055;-44
2024/01/18 09:53:36;;;;;;;7.70;3.95;;;-1.10;99.90;;;;;;4877465;29;20049;-44
2024/01/18 09:56:18;;;;;;;9.93;4.28;;;-1.00;99.90;;;;;;4881355;29;20049;-47
2024/01/18 09:58:44;;;;;;;8.18;3.72;;;-0.80;99.90;;;;;;4875865;29;20052;-45
2024/01/18 10:01:18;;;;;;;5.88;3.40;;;-0.80;99.90;;;;;;4876914;29;20049;-45
2024/01/18 10:03:44;;;;;;;5.45;3.78;;;-0.80;99.90;;;;;;4856091;29;20048;-45
2024/01/18 10:06:09;;;;;;;4.22;3.08;;;-0.60;99.90;;;;;;4875172;29;20051;-44
2024/01/18 10:08:35;;;;;;;5.90;3.30;;;-0.60;99.90;;;;;;4876207;29;20037;-44
2024/01/18 10:11:01;;;;;;;7.35;3.25;;;-0.50;99.90;;;;;;4874605;29;20492;-43
2024/01/18 10:13:26;;;;;;;6.22;3.25;;;-0.50;99.90;;;;;;4874677;29;20097;-45
2024/01/18 10:15:52;;;;;;;6.00;3.28;;;-0.50;99.90;;;;;;4887181;29;20041;-43
2024/01/18 10:18:18;;;;;;;8.63;3.33;;;-0.50;99.90;;;;;;4877646;29;20037;-45
2024/01/18 10:20:46;;;;;;;8.43;3.40;;;-0.50;99.90;;;;;;4876648;29;20136;-44
2024/01/18 10:23:12;;;;;;;;;;;-0.40;99.90;;;;;;4877303;29;20140;-45
2024/01/18 10:25:39;;;;;;;5.82;3.33;;;-0.40;99.90;;;;;;4876884;29;20042;-47
2024/01/18 10:28:05;;;;;;;8.10;2.90;;;-0.20;99.90;;;;;;4876200;29;20041;-46
2024/01/18 10:30:33;;;;;;;6.80;2.90;;;-0.20;99.90;;;;;;4877116;29;20329;-45
2024/01/18 10:33:00;;;;;;;6.07;3.08;;;0.00;99.90;;;;;;4876322;29;20457;-44
2024/01/18 10:35:28;;;;;;;8.38;2.88;;;0.00;99.90;;;;;;4877340;29;20048;-44
2024/01/18 10:38:01;;;;;;;6.05;2.72;;;0.10;99.90;;;;;;4863197;29;20056;-44
2024/01/18 10:40:30;;;;;;;6.85;2.85;;;0.20;99.90;;;;;;4877457;29;20057;-44
2024/01/18 10:42:55;;;;;;;10.20;2.63;;;0.20;99.90;;;;;;4869757;29;20177;-45
2024/01/18 10:45:21;;;;;;;7.65;3.00;;;0.30;99.90;;;;;;4875983;29;20136;-44
2024/01/18 10:47:47;;;;;;;4.18;2.78;;;0.40;99.90;;;;;;4877112;29;20045;-44
2024/01/18 10:50:12;;;;;;;3.97;2.72;;;0.50;99.90;;;;;;4877051;29;20445;-44
2024/01/18 10:52:40;;;;;;;4.95;2.88;;;0.50;99.90;;;;;;4877020;29;20052;-43
2024/01/18 10:55:08;;;;;;;11.75;3.05;;;0.50;99.90;;;;;;4876873;29;20519;-44
2024/01/18 10:57:34;;;;;;;6.82;3.00;;;0.60;99.90;;;;;;4876574;29;20096;-44
2024/01/18 11:00:00;;;;;;;7.03;3.00;;;0.70;99.90;;;;;;4877257;29;20044;-45
2024/01/18 11:02:26;;;;;;;5.53;2.58;;;;;;;;;;4881559;29;20047;-46
2024/01/18 11:04:54;;;;;;;4.95;2.17;;;0.90;99.90;;;;;;4862496;29;20519;-45
2024/01/18 11:07:21;;;;;;;7.30;2.20;;;;;;;;;;4879086;29;20056;-46
2024/01/18 11:09:47;;;;;;;3.45;2.42;;;1.00;99.90;;;;;;4875656;29;20045;-45
2024/01/18 11:12:16;;;;;;;5.07;2.13;;;1.10;99.90;;;;;;4876541;29;20575;-44
2024/01/18 11:14:42;;;;;;;6.05;2.20;;;;;;;;;;4889572;29;20105;-44
2024/01/18 11:17:12;;;;;;;4.70;1.92;;;1.30;99.90;;;;;;4877547;29;20037;-45
2024/01/18 11:19:44;;;;;;;6.45;2.20;;;1.40;99.90;;;;;;4878717;29;20590;-44
2024/01/18 11:22:30;;;;;;;3.55;2.20;;;1.50;99.90;;;;;;4877518;29;20064;-46
2024/01/18 11:25:07;;;;;;;4.20;1.92;;;;;;;;;;4877799;29;20121;-46
2024/01/18 11:27:43;;;;;;;4.45;2.17;;;;;;;;;;4877079;29;20466;-46
2024/01/18 11:30:34;;;;;;;6.28;2.05;;;1.80;99.90;;;;;;4876965;29;20123;-45
2024/01/18 11:33:03;;;;;;;5.20;2.17;;;1.90;99.90;;;;;;4861657;29;20076;-46
2024/01/18 11:35:29;;;;;;;4.03;2.17;;;2.10;99.90;;;;;;4879275;29;20128;-44
2024/01/18 11:38:21;;;;;;;6.47;2.33;;;2.20;99.90;;;;;;4881355;29;20073;-44
2024/01/18 11:40:50;;;;;;;4.03;2.20;;;2.40;99.90;;;;;;4877912;29;20045;-45
2024/01/18 11:43:17;;;;;;;3.03;1.40;;;2.50;99.90;;;;;;4880141;29;20496;-46
2024/01/18 11:45:47;;;;;;;3.60;1.30;;;2.60;99.90;;;;;;4883445;29;20068;-44
2024/01/18 11:48:13;;;;;;;2.78;1.40;;;2.90;99.90;;;;;;4870394;29;20061;-44
2024/01/18 11:50:39;;;;;;;3.28;1.42;;;3.00;99.90;;;;;;4879857;29;20040;-45
2024/01/18 11:53:09;;;;;;;1.58;1.10;;;3.10;99.90;;;;;;4885759;29;20041;-46
2024/01/18 11:55:42;;;;;;;5.28;1.20;;;3.10;99.90;;;;;;4880314;29;20041;-44
2024/01/18 11:58:08;;;;;;;4.63;1.30;;;3.00;99.90;;;;;;4889222;29;20049;-45
2024/01/18 12:00:35;;;;;;;2.55;1.15;;;2.80;99.90;;;;;;4885060;29;20469;-47
2024/01/18 12:03:03;;;;;;;1.73;1.00;;;2.60;99.90;;;;;;4884520;29;20053;-45
2024/01/18 12:05:29;;;;;;;2.13;1.05;;;2.70;99.90;;;;;;4886990;29;20053;-46
2024/01/18 12:07:56;;;;;;;4.82;1.20;;;2.70;99.90;;;;;;4886716;29;20049;-44
2024/01/18 12:10:22;;;;;;;2.42;1.27;;;2.80;99.90;;;;;;4886223;29;20080;-45
2024/01/18 12:12:49;;;;;;;3.33;1.20;;;2.80;99.90;;;;;;4868286;29;20480;-44
2024/01/18 12:15:18;;;;;;;3.25;1.33;;;2.90;99.90;;;;;;4892031;29;20132;-45
2024/01/18 12:17:44;;;;;;;6.40;1.25;;;3.00;99.90;;;;;;4883470;29;20048;-44
2024/01/18 12:20:14;;;;;;;5.53;1.35;;;3.00;99.90;;;;;;4887486;29;20041;-44
2024/01/18 12:22:39;;;;;;;4.22;1.33;;;3.00;99.90;;;;;;4880001;29;20101;-44
2024/01/18 12:25:06;;;;;;;2.45;1.33;;;3.10;99.90;;;;;;4883316;29;20041;-47
2024/01/18 12:27:32;;;;;;;3.33;1.10;;;3.10;99.90;;;;;;4886347;29;20092;-44
2024/01/18 12:29:57;;;;;;;7.53;1.70;;;3.10;99.90;;;;;;4882547;29;20440;-44
2024/01/18 12:32:23;;;;;;;5.07;1.40;;;3.10;99.90;;;;;;4888093;29;20048;-46
2024/01/18 12:34:49;;;;;;;2.88;1.15;;;3.20;99.90;;;;;;4878039;29;20045;-45
2024/01/18 12:37:14;;;;;;;2.15;0.88;;;3.20;99.90;;;;;;4877807;29;20049;-45
2024/01/18 12:39:40;;;;;;;3.88;1.00;;;3.20;99.90;;;;;;4877575;29;20041;-45
2024/01/18 12:42:06;;;;;;;3.60;1.13;;;;;;;;;;4876550;29;20037;-45